Amboy, Washington
Current Conditions -  °F | °C
As of 1:53 AM on Saturday 22 Nov 2014 (Local Time) from KSPB Reporting Station
Overcast Overcast  
Wind Chill: 46°   Ceiling: 7500
Heat Index: 46°   Visibility: 10mi
Dew Point: 44°   Wind: 3mph
Humidity: 93%   Direction: 290°WNW
Pressure: 29.69"   Gusts: NA
Location:  45.91°N, 122.45°W
Report Text: KSPB 220953Z AUTO 29003KT 10SM FEW030 BKN075 OVC090 08/07 A2969 RMK AO2 RAB0854E27 SLP052 P0003 T00780067
Loading
Personal Weather Stations






























Interactive Weather Map New forecast layout! Learn more

10-Day Weather Forecast

Advertisements
Track Severe Weather on mobile